sensor_id;sensor_type;location;lat;lon;timestamp;pressure;altitude;pressure_sealevel;temperature;humidity
37202;BME280;37799;52.390;6.136;2023-03-14T00:01:11;98766.09;;;11.49;100.00
37202;BME280;37799;52.390;6.136;2023-03-14T00:03:37;98780.94;;;11.47;100.00
37202;BME280;37799;52.390;6.136;2023-03-14T00:06:03;98773.69;;;11.52;100.00
37202;BME280;37799;52.390;6.136;2023-03-14T00:08:28;98774.09;;;11.46;100.00
37202;BME280;37799;52.390;6.136;2023-03-14T00:10:54;98761.94;;;11.32;100.00
37202;BME280;37799;52.390;6.136;2023-03-14T00:13:19;98764.44;;;11.48;100.00
37202;BME280;37799;52.390;6.136;2023-03-14T00:15:44;98760.19;;;11.47;100.00
37202;BME280;37799;52.390;6.136;2023-03-14T00:18:09;98767.78;;;11.50;100.00
37202;BME280;37799;52.390;6.136;2023-03-14T00:20:35;98766.75;;;11.52;100.00
37202;BME280;37799;52.390;6.136;2023-03-14T00:23:00;98751.34;;;11.64;100.00
37202;BME280;37799;52.390;6.136;2023-03-14T00:25:25;98770.25;;;11.51;100.00
37202;BME280;37799;52.390;6.136;2023-03-14T00:27:51;98791.22;;;11.75;100.00
37202;BME280;37799;52.390;6.136;2023-03-14T00:30:17;98796.53;;;11.60;100.00
37202;BME280;37799;52.390;6.136;2023-03-14T00:32:42;98780.38;;;11.28;100.00
37202;BME280;37799;52.390;6.136;2023-03-14T00:35:08;98770.97;;;11.12;100.00
37202;BME280;37799;52.390;6.136;2023-03-14T00:37:33;98769.03;;;11.02;100.00
37202;BME280;37799;52.390;6.136;2023-03-14T00:39:59;98780.31;;;10.86;100.00
37202;BME280;37799;52.390;6.136;2023-03-14T00:42:24;98789.34;;;10.79;100.00
37202;BME280;37799;52.390;6.136;2023-03-14T00:44:49;98785.72;;;10.68;100.00
37202;BME280;37799;52.390;6.136;2023-03-14T00:47:14;98788.13;;;10.56;100.00
37202;BME280;37799;52.390;6.136;2023-03-14T00:49:40;98783.13;;;10.53;100.00
37202;BME280;37799;52.390;6.136;2023-03-14T00:52:08;98790.41;;;10.47;100.00
37202;BME280;37799;52.390;6.136;2023-03-14T00:54:34;98777.28;;;10.50;100.00
37202;BME280;37799;52.390;6.136;2023-03-14T00:56:59;98781.34;;;10.54;100.00
37202;BME280;37799;52.390;6.136;2023-03-14T00:59:24;98781.44;;;10.52;100.00
37202;BME280;37799;52.390;6.136;2023-03-14T01:01:50;98792.63;;;10.53;100.00
37202;BME280;37799;52.390;6.136;2023-03-14T01:04:15;98794.56;;;10.49;100.00
37202;BME280;37799;52.390;6.136;2023-03-14T01:06:40;98790.16;;;10.66;100.00
37202;BME280;37799;52.390;6.136;2023-03-14T01:09:06;98793.88;;;10.76;100.00
37202;BME280;37799;52.390;6.136;2023-03-14T01:11:33;98782.06;;;10.72;100.00
37202;BME280;37799;52.390;6.136;2023-03-14T01:13:59;98793.53;;;10.82;100.00
37202;BME280;37799;52.390;6.136;2023-03-14T01:16:26;98800.72;;;10.91;100.00
37202;BME280;37799;52.390;6.136;2023-03-14T01:18:52;98795.75;;;10.88;100.00
37202;BME280;37799;52.390;6.136;2023-03-14T01:21:20;98794.81;;;10.89;100.00
37202;BME280;37799;52.390;6.136;2023-03-14T01:23:46;98790.75;;;10.71;100.00
37202;BME280;37799;52.390;6.136;2023-03-14T01:26:14;98795.00;;;10.86;100.00
37202;BME280;37799;52.390;6.136;2023-03-14T01:28:40;98795.84;;;10.86;100.00
37202;BME280;37799;52.390;6.136;2023-03-14T01:31:08;98795.53;;;10.77;100.00
37202;BME280;37799;52.390;6.136;2023-03-14T01:33:33;98798.13;;;10.77;100.00
37202;BME280;37799;52.390;6.136;2023-03-14T01:35:59;98792.31;;;10.73;100.00
37202;BME280;37799;52.390;6.136;2023-03-14T01:38:27;98793.25;;;10.72;100.00
37202;BME280;37799;52.390;6.136;2023-03-14T01:40:52;98787.31;;;10.70;100.00
37202;BME280;37799;52.390;6.136;2023-03-14T01:43:19;98792.94;;;10.62;100.00
37202;BME280;37799;52.390;6.136;2023-03-14T01:48:33;98803.47;;;10.59;100.00
37202;BME280;37799;52.390;6.136;2023-03-14T01:51:00;98802.47;;;10.62;100.00
37202;BME280;37799;52.390;6.136;2023-03-14T01:53:27;98792.47;;;10.56;100.00
37202;BME280;37799;52.390;6.136;2023-03-14T01:55:55;98796.44;;;10.47;100.00
37202;BME280;37799;52.390;6.136;2023-03-14T01:58:25;98797.03;;;10.37;100.00
37202;BME280;37799;52.390;6.136;2023-03-14T02:00:53;98796.72;;;10.27;100.00
37202;BME280;37799;52.390;6.136;2023-03-14T02:03:20;98792.97;;;10.32;100.00
37202;BME280;37799;52.390;6.136;2023-03-14T02:05:48;98816.47;;;10.44;100.00
37202;BME280;37799;52.390;6.136;2023-03-14T02:08:16;98803.56;;;10.12;100.00
37202;BME280;37799;52.390;6.136;2023-03-14T02:10:45;98789.56;;;10.16;100.00
37202;BME280;37799;52.390;6.136;2023-03-14T02:13:12;98793.56;;;10.22;100.00
37202;BME280;37799;52.390;6.136;2023-03-14T02:15:39;98787.06;;;9.99;100.00
37202;BME280;37799;52.390;6.136;2023-03-14T02:18:05;98800.44;;;9.91;100.00
37202;BME280;37799;52.390;6.136;2023-03-14T02:26:12;98779.94;;;9.57;100.00
37202;BME280;37799;52.390;6.136;2023-03-14T02:28:40;98775.94;;;9.67;100.00
37202;BME280;37799;52.390;6.136;2023-03-14T02:31:06;98766.53;;;9.50;100.00
37202;BME280;37799;52.390;6.136;2023-03-14T02:33:33;98766.28;;;9.55;100.00
37202;BME280;37799;52.390;6.136;2023-03-14T02:36:02;98763.28;;;9.46;100.00
37202;BME280;37799;52.390;6.136;2023-03-14T02:38:44;98760.44;;;9.35;100.00
37202;BME280;37799;52.390;6.136;2023-03-14T02:41:11;98755.44;;;9.32;100.00
37202;BME280;37799;52.390;6.136;2023-03-14T02:43:36;98756.00;;;9.37;100.00
37202;BME280;37799;52.390;6.136;2023-03-14T02:46:04;98754.25;;;9.22;100.00
37202;BME280;37799;52.390;6.136;2023-03-14T02:48:37;98774.91;;;9.22;100.00
37202;BME280;37799;52.390;6.136;2023-03-14T02:51:04;98753.94;;;9.28;100.00
37202;BME280;37799;52.390;6.136;2023-03-14T02:53:33;98767.22;;;9.38;100.00
37202;BME280;37799;52.390;6.136;2023-03-14T02:55:58;98763.19;;;9.32;100.00
37202;BME280;37799;52.390;6.136;2023-03-14T02:58:26;98764.28;;;9.28;100.00
37202;BME280;37799;52.390;6.136;2023-03-14T03:00:52;98764.28;;;9.28;100.00
37202;BME280;37799;52.390;6.136;2023-03-14T03:03:18;98758.47;;;9.25;100.00
37202;BME280;37799;52.390;6.136;2023-03-14T03:05:51;98748.44;;;9.19;100.00
37202;BME280;37799;52.390;6.136;2023-03-14T03:08:21;98747.69;;;9.32;100.00
37202;BME280;37799;52.390;6.136;2023-03-14T03:10:47;98743.63;;;9.28;100.00
37202;BME280;37799;52.390;6.136;2023-03-14T03:13:12;98743.78;;;9.41;100.00
37202;BME280;37799;52.390;6.136;2023-03-14T03:15:38;98750.09;;;9.35;100.00
37202;BME280;37799;52.390;6.136;2023-03-14T03:18:03;98755.28;;;9.35;100.00
37202;BME280;37799;52.390;6.136;2023-03-14T03:20:29;98749.63;;;9.29;100.00
37202;BME280;37799;52.390;6.136;2023-03-14T03:22:54;98760.44;;;9.35;100.00
37202;BME280;37799;52.390;6.136;2023-03-14T03:25:19;98741.44;;;9.36;100.00
37202;BME280;37799;52.390;6.136;2023-03-14T03:27:45;98745.78;;;9.36;100.00
37202;BME280;37799;52.390;6.136;2023-03-14T03:30:11;98739.19;;;9.30;100.00
37202;BME280;37799;52.390;6.136;2023-03-14T03:32:36;98738.28;;;9.47;100.00
37202;BME280;37799;52.390;6.136;2023-03-14T03:35:04;98733.09;;;9.47;100.00
37202;BME280;37799;52.390;6.136;2023-03-14T03:37:31;98741.28;;;9.39;100.00
37202;BME280;37799;52.390;6.136;2023-03-14T03:39:57;98737.78;;;9.40;100.00
37202;BME280;37799;52.390;6.136;2023-03-14T03:42:22;98738.28;;;9.47;100.00
37202;BME280;37799;52.390;6.136;2023-03-14T03:44:47;98750.63;;;9.26;100.00
37202;BME280;37799;52.390;6.136;2023-03-14T03:47:13;98747.44;;;9.21;100.00
37202;BME280;37799;52.390;6.136;2023-03-14T03:49:38;98740.28;;;9.26;100.00
37202;BME280;37799;52.390;6.136;2023-03-14T03:52:04;98731.84;;;9.23;100.00
37202;BME280;37799;52.390;6.136;2023-03-14T03:54:29;98736.63;;;9.30;100.00
37202;BME280;37799;52.390;6.136;2023-03-14T03:56:55;98740.03;;;9.31;100.00
37202;BME280;37799;52.390;6.136;2023-03-14T03:59:20;98739.28;;;9.44;100.00
37202;BME280;37799;52.390;6.136;2023-03-14T04:01:46;98735.22;;;9.40;100.00
37202;BME280;37799;52.390;6.136;2023-03-14T04:04:11;98738.28;;;9.31;100.00
37202;BME280;37799;52.390;6.136;2023-03-14T04:06:37;98743.88;;;9.55;100.00
37202;BME280;37799;52.390;6.136;2023-03-14T04:09:03;98740.09;;;9.61;100.00
37202;BME280;37799;52.390;6.136;2023-03-14T04:11:28;98743.69;;;9.42;100.00
37202;BME280;37799;52.390;6.136;2023-03-14T04:13:54;98740.53;;;9.37;100.00
37202;BME280;37799;52.390;6.136;2023-03-14T04:16:22;98744.44;;;9.44;100.00
37202;BME280;37799;52.390;6.136;2023-03-14T04:18:48;98729.63;;;9.32;100.00
37202;BME280;37799;52.390;6.136;2023-03-14T04:21:13;98737.78;;;9.40;100.00
37202;BME280;37799;52.390;6.136;2023-03-14T04:23:39;98734.94;;;9.13;100.00
37202;BME280;37799;52.390;6.136;2023-03-14T04:26:04;98725.47;;;9.14;100.00
37202;BME280;37799;52.390;6.136;2023-03-14T04:28:30;98730.78;;;9.27;100.00
37202;BME280;37799;52.390;6.136;2023-03-14T04:30:55;98733.28;;;9.28;100.00
37202;BME280;37799;52.390;6.136;2023-03-14T04:33:20;98732.63;;;9.40;100.00
37202;BME280;37799;52.390;6.136;2023-03-14T04:35:46;98720.38;;;9.28;100.00
37202;BME280;37799;52.390;6.136;2023-03-14T04:38:12;98723.28;;;9.22;100.00
37202;BME280;37799;52.390;6.136;2023-03-14T04:40:39;98721.78;;;9.18;100.00
37202;BME280;37799;52.390;6.136;2023-03-14T04:43:06;98724.44;;;9.32;100.00
37202;BME280;37799;52.390;6.136;2023-03-14T04:45:31;98714.56;;;9.25;100.00
37202;BME280;37799;52.390;6.136;2023-03-14T04:47:57;98709.31;;;9.26;100.00
37202;BME280;37799;52.390;6.136;2023-03-14T04:50:22;98702.31;;;9.28;100.00
37202;BME280;37799;52.390;6.136;2023-03-14T04:52:47;98699.81;;;9.27;100.00
37202;BME280;37799;52.390;6.136;2023-03-14T04:55:13;98700.94;;;9.21;100.00
37202;BME280;37799;52.390;6.136;2023-03-14T04:57:39;98695.63;;;9.24;100.00
37202;BME280;37799;52.390;6.136;2023-03-14T05:00:04;98709.59;;;9.36;100.00
37202;BME280;37799;52.390;6.136;2023-03-14T05:02:34;98709.03;;;9.15;100.00
37202;BME280;37799;52.390;6.136;2023-03-14T05:04:59;98703.22;;;9.27;100.00
37202;BME280;37799;52.390;6.136;2023-03-14T05:07:25;98698.81;;;9.29;100.00
37202;BME280;37799;52.390;6.136;2023-03-14T05:09:50;98699.28;;;9.36;100.00
37202;BME280;37799;52.390;6.136;2023-03-14T05:12:17;98694.72;;;9.41;100.00
37202;BME280;37799;52.390;6.136;2023-03-14T05:14:43;98701.63;;;9.40;100.00
37202;BME280;37799;52.390;6.136;2023-03-14T05:17:08;98694.56;;;9.28;100.00
37202;BME280;37799;52.390;6.136;2023-03-14T05:19:33;98691.47;;;9.22;100.00
37202;BME280;37799;52.390;6.136;2023-03-14T05:21:59;98695.28;;;9.30;100.00
37202;BME280;37799;52.390;6.136;2023-03-14T05:24:25;98706.06;;;9.38;100.00
37202;BME280;37799;52.390;6.136;2023-03-14T05:26:50;98697.38;;;9.39;100.00
37202;BME280;37799;52.390;6.136;2023-03-14T05:29:15;98695.72;;;9.38;100.00
37202;BME280;37799;52.390;6.136;2023-03-14T05:31:41;98693.44;;;9.48;100.00
37202;BME280;37799;52.390;6.136;2023-03-14T05:34:06;98705.78;;;9.43;100.00
37202;BME280;37799;52.390;6.136;2023-03-14T05:36:31;98705.59;;;9.62;100.00
37202;BME280;37799;52.390;6.136;2023-03-14T05:38:57;98689.53;;;9.57;100.00
37202;BME280;37799;52.390;6.136;2023-03-14T05:41:22;98700.59;;;9.59;100.00
37202;BME280;37799;52.390;6.136;2023-03-14T05:43:47;98688.44;;;9.45;100.00
37202;BME280;37799;52.390;6.136;2023-03-14T05:46:12;98689.69;;;9.54;100.00
37202;BME280;37799;52.390;6.136;2023-03-14T05:48:38;98689.94;;;9.49;100.00
37202;BME280;37799;52.390;6.136;2023-03-14T05:51:03;98694.88;;;9.54;100.00
37202;BME280;37799;52.390;6.136;2023-03-14T05:53:29;98688.81;;;9.39;100.00
37202;BME280;37799;52.390;6.136;2023-03-14T05:55:55;98699.63;;;9.45;100.00
37202;BME280;37799;52.390;6.136;2023-03-14T05:58:21;98691.78;;;9.47;100.00
37202;BME280;37799;52.390;6.136;2023-03-14T06:00:47;98690.63;;;9.53;100.00
37202;BME280;37799;52.390;6.136;2023-03-14T06:03:12;98689.09;;;9.49;100.00
37202;BME280;37799;52.390;6.136;2023-03-14T06:05:37;98687.06;;;9.39;100.00
37202;BME280;37799;52.390;6.136;2023-03-14T06:08:03;98686.13;;;9.40;100.00
37202;BME280;37799;52.390;6.136;2023-03-14T06:10:28;98692.38;;;9.36;100.00
37202;BME280;37799;52.390;6.136;2023-03-14T06:12:54;98685.03;;;9.44;100.00
37202;BME280;37799;52.390;6.136;2023-03-14T06:15:19;98679.81;;;9.30;100.00
37202;BME280;37799;52.390;6.136;2023-03-14T06:17:44;98688.28;;;9.32;100.00
37202;BME280;37799;52.390;6.136;2023-03-14T06:20:10;98682.31;;;9.16;100.00
37202;BME280;37799;52.390;6.136;2023-03-14T06:22:35;98687.38;;;9.18;100.00
37202;BME280;37799;52.390;6.136;2023-03-14T06:25:01;98685.47;;;9.21;100.00
37202;BME280;37799;52.390;6.136;2023-03-14T06:27:27;98682.31;;;9.16;100.00
37202;BME280;37799;52.390;6.136;2023-03-14T06:29:52;98692.16;;;9.25;100.00
37202;BME280;37799;52.390;6.136;2023-03-14T06:32:17;98686.97;;;9.09;100.00
37202;BME280;37799;52.390;6.136;2023-03-14T06:34:43;98688.03;;;9.21;100.00
37202;BME280;37799;52.390;6.136;2023-03-14T06:37:09;98693.38;;;9.18;100.00
37202;BME280;37799;52.390;6.136;2023-03-14T06:39:34;98687.28;;;9.19;100.00
37202;BME280;37799;52.390;6.136;2023-03-14T06:41:59;98688.03;;;9.21;100.00
37202;BME280;37799;52.390;6.136;2023-03-14T06:44:25;98689.78;;;9.21;100.00
37202;BME280;37799;52.390;6.136;2023-03-14T06:46:50;98680.47;;;9.18;100.00
37202;BME280;37799;52.390;6.136;2023-03-14T06:49:15;98686.97;;;9.09;100.00
37202;BME280;37799;52.390;6.136;2023-03-14T06:51:40;98680.81;;;9.12;100.00
37202;BME280;37799;52.390;6.136;2023-03-14T06:54:06;98696.06;;;9.16;100.00
37202;BME280;37799;52.390;6.136;2023-03-14T06:56:31;98694.03;;;9.22;100.00
37202;BME280;37799;52.390;6.136;2023-03-14T06:58:56;98698.44;;;9.35;100.00
37202;BME280;37799;52.390;6.136;2023-03-14T07:01:24;98704.38;;;9.22;100.00
37202;BME280;37799;52.390;6.136;2023-03-14T07:03:50;98701.72;;;9.39;100.00
37202;BME280;37799;52.390;6.136;2023-03-14T07:06:15;98711.78;;;9.43;100.00
37202;BME280;37799;52.390;6.136;2023-03-14T07:08:41;98707.72;;;9.39;100.00
37202;BME280;37799;52.390;6.136;2023-03-14T07:11:07;98725.78;;;9.24;100.00
37202;BME280;37799;52.390;6.136;2023-03-14T07:13:32;98733.88;;;9.33;100.00
37202;BME280;37799;52.390;6.136;2023-03-14T07:15:58;98788.00;;;9.19;100.00
37202;BME280;37799;52.390;6.136;2023-03-14T07:18:23;98813.03;;;8.32;100.00
37202;BME280;37799;52.390;6.136;2023-03-14T07:20:48;98813.84;;;7.98;100.00
37202;BME280;37799;52.390;6.136;2023-03-14T07:23:13;98825.28;;;7.92;100.00
37202;BME280;37799;52.390;6.136;2023-03-14T07:25:39;98834.72;;;7.75;100.00
37202;BME280;37799;52.390;6.136;2023-03-14T07:28:04;98845.44;;;7.65;100.00
37202;BME280;37799;52.390;6.136;2023-03-14T07:30:29;98860.97;;;7.45;100.00
37202;BME280;37799;52.390;6.136;2023-03-14T07:32:55;98863.03;;;7.37;100.00
37202;BME280;37799;52.390;6.136;2023-03-14T07:35:20;98865.00;;;7.51;100.00
37202;BME280;37799;52.390;6.136;2023-03-14T07:37:45;98874.84;;;7.41;100.00
37202;BME280;37799;52.390;6.136;2023-03-14T07:40:11;98883.47;;;7.40;100.00
37202;BME280;37799;52.390;6.136;2023-03-14T07:42:40;98881.97;;;7.36;100.00
37202;BME280;37799;52.390;6.136;2023-03-14T07:45:06;98890.50;;;7.36;100.00
37202;BME280;37799;52.390;6.136;2023-03-14T07:47:31;98905.06;;;7.37;100.00
37202;BME280;37799;52.390;6.136;2023-03-14T07:49:57;98906.25;;;7.30;100.00
37202;BME280;37799;52.390;6.136;2023-03-14T07:52:22;98907.16;;;7.29;100.00
37202;BME280;37799;52.390;6.136;2023-03-14T07:54:48;98919.38;;;7.24;100.00
37202;BME280;37799;52.390;6.136;2023-03-14T07:57:13;98931.78;;;7.35;100.00
37202;BME280;37799;52.390;6.136;2023-03-14T07:59:39;98929.75;;;7.42;100.00
37202;BME280;37799;52.390;6.136;2023-03-14T08:02:04;98939.28;;;7.39;100.00
37202;BME280;37799;52.390;6.136;2023-03-14T08:04:34;98947.38;;;7.32;100.00
37202;BME280;37799;52.390;6.136;2023-03-14T08:06:59;98957.78;;;7.29;100.00
37202;BME280;37799;52.390;6.136;2023-03-14T08:09:25;98990.22;;;7.13;100.00
37202;BME280;37799;52.390;6.136;2023-03-14T08:11:50;98987.88;;;6.86;100.00
37202;BME280;37799;52.390;6.136;2023-03-14T08:14:15;99022.19;;;6.65;100.00
37202;BME280;37799;52.390;6.136;2023-03-14T08:16:41;99015.56;;;6.36;100.00
37202;BME280;37799;52.390;6.136;2023-03-14T08:19:06;99045.75;;;6.07;100.00
37202;BME280;37799;52.390;6.136;2023-03-14T08:21:31;99066.00;;;5.91;100.00
37202;BME280;37799;52.390;6.136;2023-03-14T08:23:56;99067.47;;;5.74;100.00
37202;BME280;37799;52.390;6.136;2023-03-14T08:26:22;99083.28;;;5.61;100.00
37202;BME280;37799;52.390;6.136;2023-03-14T08:28:47;99094.22;;;5.67;100.00
37202;BME280;37799;52.390;6.136;2023-03-14T08:31:12;99109.84;;;5.60;100.00
37202;BME280;37799;52.390;6.136;2023-03-14T08:33:38;99117.00;;;5.51;100.00
37202;BME280;37799;52.390;6.136;2023-03-14T08:36:03;99117.13;;;5.48;100.00
37202;BME280;37799;52.390;6.136;2023-03-14T08:38:28;99138.09;;;5.34;100.00
37202;BME280;37799;52.390;6.136;2023-03-14T08:40:58;99144.03;;;5.36;100.00
37202;BME280;37799;52.390;6.136;2023-03-14T08:43:24;99166.72;;;5.20;100.00
37202;BME280;37799;52.390;6.136;2023-03-14T08:45:49;99165.97;;;5.45;100.00
37202;BME280;37799;52.390;6.136;2023-03-14T08:48:14;99175.34;;;5.46;100.00
37202;BME280;37799;52.390;6.136;2023-03-14T08:50:40;99192.81;;;5.62;100.00
37202;BME280;37799;52.390;6.136;2023-03-14T08:53:05;99213.47;;;5.58;100.00
37202;BME280;37799;52.390;6.136;2023-03-14T08:55:30;99209.69;;;5.70;100.00
37202;BME280;37799;52.390;6.136;2023-03-14T08:57:56;99221.44;;;5.77;100.00
37202;BME280;37799;52.390;6.136;2023-03-14T09:00:21;99234.91;;;5.83;100.00
37202;BME280;37799;52.390;6.136;2023-03-14T09:02:46;99237.00;;;6.00;100.00
37202;BME280;37799;52.390;6.136;2023-03-14T09:05:12;99250.72;;;6.26;100.00
37202;BME280;37799;52.390;6.136;2023-03-14T09:07:38;99253.78;;;6.35;100.00
37202;BME280;37799;52.390;6.136;2023-03-14T09:10:05;99273.28;;;6.42;100.00
37202;BME280;37799;52.390;6.136;2023-03-14T09:12:30;99281.31;;;6.58;100.00
37202;BME280;37799;52.390;6.136;2023-03-14T09:14:56;99303.56;;;6.59;100.00
37202;BME280;37799;52.390;6.136;2023-03-14T09:17:21;99312.59;;;6.71;100.00
37202;BME280;37799;52.390;6.136;2023-03-14T09:19:46;99323.22;;;6.60;100.00
37202;BME280;37799;52.390;6.136;2023-03-14T09:22:12;99332.81;;;6.82;100.00
37202;BME280;37799;52.390;6.136;2023-03-14T09:24:37;99344.41;;;6.68;100.00
37202;BME280;37799;52.390;6.136;2023-03-14T09:27:02;99345.53;;;6.60;100.00
37202;BME280;37799;52.390;6.136;2023-03-14T09:29:28;99363.50;;;6.35;100.00
37202;BME280;37799;52.390;6.136;2023-03-14T09:31:53;99368.63;;;6.35;100.00
37202;BME280;37799;52.390;6.136;2023-03-14T09:34:19;99379.44;;;6.46;100.00
37202;BME280;37799;52.390;6.136;2023-03-14T09:36:44;99392.50;;;6.40;100.00
37202;BME280;37799;52.390;6.136;2023-03-14T09:39:11;99396.19;;;6.58;100.00
37202;BME280;37799;52.390;6.136;2023-03-14T09:41:42;99398.00;;;6.80;100.00
37202;BME280;37799;52.390;6.136;2023-03-14T09:44:15;99402.75;;;6.93;100.00
37202;BME280;37799;52.390;6.136;2023-03-14T09:46:43;99407.31;;;7.09;100.00
37202;BME280;37799;52.390;6.136;2023-03-14T09:49:36;99421.81;;;7.12;100.00
37202;BME280;37799;52.390;6.136;2023-03-14T09:52:06;99421.31;;;7.26;100.00
37202;BME280;37799;52.390;6.136;2023-03-14T09:54:45;99438.97;;;7.36;100.00
37202;BME280;37799;52.390;6.136;2023-03-14T09:57:15;99442.53;;;7.57;100.00
37202;BME280;37799;52.390;6.136;2023-03-14T09:59:44;99449.03;;;7.67;100.00
37202;BME280;37799;52.390;6.136;2023-03-14T10:02:24;99473.09;;;7.66;100.00
37202;BME280;37799;52.390;6.136;2023-03-14T10:04:51;99469.63;;;7.67;100.00
37202;BME280;37799;52.390;6.136;2023-03-14T10:07:37;99483.16;;;7.74;100.00
37202;BME280;37799;52.390;6.136;2023-03-14T10:10:13;99486.28;;;7.59;100.00
37202;BME280;37799;52.390;6.136;2023-03-14T10:12:40;99502.25;;;7.68;100.00
37202;BME280;37799;52.390;6.136;2023-03-14T10:15:13;99505.38;;;7.77;100.00
37202;BME280;37799;52.390;6.136;2023-03-14T10:17:42;99522.47;;;7.54;100.00
37202;BME280;37799;52.390;6.136;2023-03-14T10:22:58;99542.34;;;6.99;100.00
37202;BME280;37799;52.390;6.136;2023-03-14T10:25:32;99557.22;;;6.90;100.00
37202;BME280;37799;52.390;6.136;2023-03-14T10:27:58;99567.16;;;6.74;100.00
37202;BME280;37799;52.390;6.136;2023-03-14T10:33:24;99613.13;;;6.27;100.00
37202;BME280;37799;52.390;6.136;2023-03-14T10:36:19;99622.59;;;5.93;100.00
37202;BME280;37799;52.390;6.136;2023-03-14T10:38:47;99617.63;;;5.86;100.00
37202;BME280;37799;52.390;6.136;2023-03-14T10:41:23;99619.72;;;5.71;100.00
37202;BME280;37799;52.390;6.136;2023-03-14T10:43:51;99631.19;;;5.91;100.00
37202;BME280;37799;52.390;6.136;2023-03-14T10:46:19;99646.22;;;6.07;100.00
37202;BME280;37799;52.390;6.136;2023-03-14T10:48:45;99661.03;;;6.30;100.00
37202;BME280;37799;52.390;6.136;2023-03-14T10:54:03;99671.34;;;6.89;100.00
37202;BME280;37799;52.390;6.136;2023-03-14T10:56:36;99670.75;;;7.08;100.00
37202;BME280;37799;52.390;6.136;2023-03-14T10:59:04;99692.41;;;7.01;100.00
37202;BME280;37799;52.390;6.136;2023-03-14T11:09:36;99729.06;;;6.80;100.00
37202;BME280;37799;52.390;6.136;2023-03-14T11:15:02;99757.94;;;7.49;100.00
37202;BME280;37799;52.390;6.136;2023-03-14T11:17:46;99770.81;;;7.77;100.00
37202;BME280;37799;52.390;6.136;2023-03-14T11:28:41;99820.81;;;8.25;100.00
37202;BME280;37799;52.390;6.136;2023-03-14T11:31:24;99835.34;;;8.28;100.00
37202;BME280;37799;52.390;6.136;2023-03-14T11:34:15;99854.75;;;8.40;100.00
37202;BME280;37799;52.390;6.136;2023-03-14T11:37:05;99852.50;;;8.29;100.00
37202;BME280;37799;52.390;6.136;2023-03-14T11:39:45;99865.19;;;8.88;100.00
37202;BME280;37799;52.390;6.136;2023-03-14T11:42:17;99870.66;;;9.04;100.00
37202;BME280;37799;52.390;6.136;2023-03-14T11:44:48;99884.56;;;9.00;100.00
37202;BME280;37799;52.390;6.136;2023-03-14T11:47:21;99892.88;;;8.83;100.00
37202;BME280;37799;52.390;6.136;2023-03-14T11:52:41;99917.59;;;8.90;100.00
37202;BME280;37799;52.390;6.136;2023-03-14T11:55:20;99909.44;;;9.02;100.00
37202;BME280;37799;52.390;6.136;2023-03-14T11:57:49;99930.84;;;9.31;100.00
37202;BME280;37799;52.390;6.136;2023-03-14T12:05:40;99950.22;;;9.91;96.47
37202;BME280;37799;52.390;6.136;2023-03-14T12:08:19;99966.09;;;9.80;89.80
37202;BME280;37799;52.390;6.136;2023-03-14T12:10:58;99972.16;;;9.56;87.57
37202;BME280;37799;52.390;6.136;2023-03-14T12:13:29;99980.28;;;9.20;91.97
37202;BME280;37799;52.390;6.136;2023-03-14T12:16:00;99977.00;;;8.90;86.40
37202;BME280;37799;52.390;6.136;2023-03-14T12:18:28;99982.00;;;8.68;92.92
37202;BME280;37799;52.390;6.136;2023-03-14T12:20:58;99984.16;;;8.54;94.20
37202;BME280;37799;52.390;6.136;2023-03-14T12:23:26;99995.38;;;8.23;92.62
37202;BME280;37799;52.390;6.136;2023-03-14T12:26:17;99995.97;;;8.32;100.00
37202;BME280;37799;52.390;6.136;2023-03-14T12:28:49;100007.81;;;8.40;100.00
37202;BME280;37799;52.390;6.136;2023-03-14T12:39:31;100036.47;;;7.67;97.71
37202;BME280;37799;52.390;6.136;2023-03-14T12:42:11;100043.81;;;7.50;100.00
37202;BME280;37799;52.390;6.136;2023-03-14T12:44:45;100036.66;;;7.27;100.00
37202;BME280;37799;52.390;6.136;2023-03-14T12:49:54;100053.00;;;7.60;100.00
37202;BME280;37799;52.390;6.136;2023-03-14T12:52:37;100053.19;;;7.85;92.29
37202;BME280;37799;52.390;6.136;2023-03-14T12:55:29;100066.56;;;8.29;94.18
37202;BME280;37799;52.390;6.136;2023-03-14T12:58:20;100066.63;;;8.85;92.63
37202;BME280;37799;52.390;6.136;2023-03-14T13:00:55;100076.84;;;9.42;89.40
37202;BME280;37799;52.390;6.136;2023-03-14T13:03:24;100083.19;;;9.06;78.54
37202;BME280;37799;52.390;6.136;2023-03-14T13:06:03;100089.47;;;8.41;77.28
37202;BME280;37799;52.390;6.136;2023-03-14T13:11:07;100102.78;;;7.93;85.20
37202;BME280;37799;52.390;6.136;2023-03-14T13:13:35;100111.50;;;8.22;82.02
37202;BME280;37799;52.390;6.136;2023-03-14T13:16:02;100130.59;;;8.15;71.17
37202;BME280;37799;52.390;6.136;2023-03-14T13:18:37;100138.28;;;8.16;65.07
37202;BME280;37799;52.390;6.136;2023-03-14T13:21:15;100149.25;;;8.24;69.25
37202;BME280;37799;52.390;6.136;2023-03-14T13:24:03;100145.91;;;8.21;70.12
37202;BME280;37799;52.390;6.136;2023-03-14T13:26:42;100159.31;;;8.01;74.48
37202;BME280;37799;52.390;6.136;2023-03-14T13:31:51;100175.28;;;7.83;76.73
37202;BME280;37799;52.390;6.136;2023-03-14T13:34:17;100167.31;;;7.90;77.25
37202;BME280;37799;52.390;6.136;2023-03-14T13:36:43;100180.44;;;7.83;74.33
37202;BME280;37799;52.390;6.136;2023-03-14T13:39:20;100190.78;;;7.80;76.36
37202;BME280;37799;52.390;6.136;2023-03-14T13:41:47;100198.13;;;7.96;80.49
37202;BME280;37799;52.390;6.136;2023-03-14T13:44:16;100199.63;;;8.04;76.18
37202;BME280;37799;52.390;6.136;2023-03-14T13:46:42;100205.53;;;7.75;81.33
37202;BME280;37799;52.390;6.136;2023-03-14T13:49:18;100208.22;;;8.04;82.40
37202;BME280;37799;52.390;6.136;2023-03-14T13:51:46;100225.88;;;8.21;74.60
37202;BME280;37799;52.390;6.136;2023-03-14T13:54:17;100227.41;;;8.26;75.74
37202;BME280;37799;52.390;6.136;2023-03-14T13:56:42;100236.84;;;7.93;74.22
37202;BME280;37799;52.390;6.136;2023-03-14T13:59:22;100248.16;;;7.88;78.66
37202;BME280;37799;52.390;6.136;2023-03-14T14:01:48;100251.22;;;7.68;81.31